Time;durP1;ratioP1;P1;durP2;ratioP2;P2;SDS_P1;SDS_P2;PMS_P1;PMS_P2;Temp;Humidity;BMP_temperature;BMP_pressure;BME280_temperature;BME280_humidity;BME280_pressure;Samples;Min_cycle;Max_cycle;Signal;HPM_P1;HPM_P2
2022/01/07 00:01:26;;;;;;;20.90;5.90;;;;;;;2.98;75.07;101306.75;5117417;27;20036;-66
2022/01/07 00:03:53;;;;;;;21.25;6.25;;;;;;;3.01;75.27;101309.22;5121974;27;20055;-66
2022/01/07 00:06:20;;;;;;;18.52;5.85;;;;;;;3.08;74.52;101305.28;5134374;27;20380;-66
2022/01/07 00:08:46;;;;;;;19.17;5.75;;;;;;;3.17;74.00;101304.72;5132601;27;20043;-66
2022/01/07 00:11:13;;;;;;;24.42;6.05;;;;;;;3.06;75.32;101294.88;5132744;27;20057;-66
2022/01/07 00:13:40;;;;;;;21.88;7.20;;;;;;;3.02;75.94;101295.16;5130248;27;20388;-65
2022/01/07 00:16:07;;;;;;;23.45;6.47;;;;;;;3.16;75.24;101292.53;5072577;28;20102;-66
2022/01/07 00:18:34;;;;;;;24.63;6.90;;;;;;;3.15;75.54;101295.28;5126356;27;20047;-66
2022/01/07 00:21:01;;;;;;;21.77;6.03;;;;;;;3.04;75.88;101288.91;5076894;28;20040;-66
2022/01/07 00:23:28;;;;;;;19.92;6.65;;;;;;;3.07;75.00;101286.09;5109394;28;20050;-66
2022/01/07 00:25:56;;;;;;;22.55;6.50;;;;;;;3.09;75.41;101280.75;5097970;27;20499;-66
2022/01/07 00:28:23;;;;;;;22.20;6.22;;;;;;;3.14;75.36;101277.84;5115084;28;20047;-65
2022/01/07 00:30:52;;;;;;;24.00;6.07;;;;;;;3.14;74.58;101270.81;5115781;27;20036;-66
2022/01/07 00:33:18;;;;;;;24.80;6.32;;;;;;;3.10;74.57;101263.25;5112010;28;20495;-66
2022/01/07 00:35:46;;;;;;;23.50;6.75;;;;;;;3.14;75.39;101259.50;5117592;27;20039;-66
2022/01/07 00:38:13;;;;;;;19.08;5.82;;;;;;;3.07;74.74;101257.25;5114762;27;20121;-66
2022/01/07 00:40:40;;;;;;;20.92;6.15;;;;;;;3.16;75.19;101253.22;5126512;27;20040;-66
2022/01/07 00:43:07;;;;;;;20.42;6.35;;;;;;;3.20;75.52;101248.63;5120509;27;20466;-66
2022/01/07 00:45:33;;;;;;;22.17;6.10;;;;;;;3.16;75.39;101247.13;5115073;27;20416;-66
2022/01/07 00:48:01;;;;;;;20.42;6.18;;;;;;;3.19;74.97;101245.19;5133975;27;20071;-66
2022/01/07 00:50:30;;;;;;;20.50;6.20;;;;;;;3.25;74.21;101236.09;5129674;27;20043;-66
2022/01/07 00:52:57;;;;;;;22.20;6.68;;;;;;;3.11;75.00;101239.56;5130828;27;20028;-66
2022/01/07 00:55:26;;;;;;;22.38;6.35;;;;;;;3.13;75.97;101235.06;5127760;27;20180;-66
2022/01/07 00:57:53;;;;;;;19.45;5.70;;;;;;;3.13;75.04;101226.34;5115458;27;20499;-66
2022/01/07 01:00:24;;;;;;;22.45;6.43;;;;;;;3.08;75.61;101222.22;5115482;27;20035;-66
2022/01/07 01:02:53;;;;;;;25.33;6.57;;;;;;;3.11;75.84;101223.84;5113045;28;20067;-66
2022/01/07 01:05:20;;;;;;;19.13;6.57;;;;;;;3.16;75.34;101229.63;5110842;28;20044;-66
2022/01/07 01:07:47;;;;;;;21.27;6.80;;;;;;;3.08;75.85;101221.41;5112556;28;20039;-66
2022/01/07 01:10:16;;;;;;;20.55;6.10;;;;;;;3.02;75.50;101217.38;5113845;28;20051;-66
2022/01/07 01:12:44;;;;;;;17.92;5.72;;;;;;;3.16;75.44;101220.91;5112590;28;20035;-66
2022/01/07 01:15:14;;;;;;;24.25;7.38;;;;;;;3.14;75.29;101220.19;5113912;28;20443;-66
2022/01/07 01:17:41;;;;;;;24.83;6.95;;;;;;;3.20;74.89;101219.78;5113933;28;20074;-66
2022/01/07 01:20:11;;;;;;;19.25;6.50;;;;;;;3.19;74.75;101218.13;5113232;28;20496;-66
2022/01/07 01:22:38;;;;;;;24.73;7.00;;;;;;;3.23;75.27;101209.94;5114399;28;20036;-65
2022/01/07 01:25:05;;;;;;;21.98;6.88;;;;;;;3.22;74.62;101210.91;5095828;28;20035;-65
2022/01/07 01:27:33;;;;;;;20.05;6.75;;;;;;;3.19;75.51;101207.63;5113672;28;20538;-65
2022/01/07 01:30:02;;;;;;;19.73;6.60;;;;;;;3.32;74.97;101203.31;5112625;28;20112;-65
2022/01/07 01:32:31;;;;;;;22.15;6.55;;;;;;;3.18;75.13;101196.28;5110858;28;20036;-65
2022/01/07 01:34:57;;;;;;;25.25;7.72;;;;;;;3.21;77.07;101197.88;5112217;28;20061;-65
2022/01/07 01:37:24;;;;;;;20.15;7.05;;;;;;;3.25;76.41;101188.88;5113577;28;20121;-65
2022/01/07 01:39:51;;;;;;;19.35;6.85;;;;;;;3.29;76.02;101181.66;5112409;28;20043;-65
2022/01/07 01:42:18;;;;;;;20.65;6.47;;;;;;;3.26;75.75;101167.81;5113524;28;20108;-65
2022/01/07 01:44:45;;;;;;;23.95;6.97;;;;;;;3.26;75.59;101172.22;5095142;27;20100;-65
2022/01/07 01:47:11;;;;;;;17.05;5.97;;;;;;;3.30;75.28;101168.47;5133241;27;20049;-66
2022/01/07 01:49:40;;;;;;;25.15;6.65;;;;;;;3.29;75.09;101169.38;5132153;27;20839;-65
2022/01/07 01:52:08;;;;;;;21.05;6.10;;;;;;;3.38;74.38;101167.97;5132460;27;20388;-65
2022/01/07 01:54:34;;;;;;;23.33;6.38;;;;;;;3.29;75.33;101161.53;5132523;27;20043;-65
2022/01/07 01:57:02;;;;;;;20.10;6.68;;;;;;;3.29;74.67;101164.16;5116028;27;20070;-65
2022/01/07 01:59:30;;;;;;;24.88;6.95;;;;;;;3.15;74.01;101164.19;5134015;27;20035;-65
2022/01/07 02:01:57;;;;;;;19.75;6.78;;;;;;;3.18;75.73;101156.94;5136542;27;20036;-65
2022/01/07 02:04:24;;;;;;;21.85;6.50;;;;;;;3.22;74.83;101160.22;5109623;27;20135;-65
2022/01/07 02:06:50;;;;;;;19.02;6.55;;;;;;;3.19;74.74;101160.44;5091006;28;20220;-66
2022/01/07 02:09:21;;;;;;;17.08;6.22;;;;;;;3.23;74.52;101162.75;5089878;28;20040;-65
2022/01/07 02:11:48;;;;;;;19.52;6.65;;;;;;;3.19;74.07;101148.16;5081795;28;20534;-65
2022/01/07 02:14:15;;;;;;;19.35;7.32;;;;;;;3.06;74.34;101155.94;5092717;28;20056;-64
2022/01/07 02:16:41;;;;;;;17.17;6.07;;;;;;;3.02;75.51;101146.59;5091333;28;20090;-65
2022/01/07 02:19:08;;;;;;;19.27;6.65;;;;;;;3.19;75.71;101142.09;5091648;28;20062;-65
2022/01/07 02:21:37;;;;;;;24.17;6.32;;;;;;;3.21;75.67;101133.16;5108437;28;20392;-65
2022/01/07 02:24:05;;;;;;;23.33;7.25;;;;;;;3.18;75.00;101130.72;5111532;28;20040;-66
2022/01/07 02:26:34;;;;;;;18.70;7.03;;;;;;;3.13;77.12;101118.84;5111813;28;20044;-67
2022/01/07 02:29:03;;;;;;;20.55;7.35;;;;;;;3.06;75.75;101123.66;5112709;28;20069;-65
2022/01/07 02:31:30;;;;;;;19.10;7.38;;;;;;;3.04;76.97;101112.44;5112961;28;20051;-66
2022/01/07 02:33:58;;;;;;;23.58;6.82;;;;;;;3.10;76.98;101127.78;5115944;28;20036;-66
2022/01/07 02:36:24;;;;;;;19.67;6.80;;;;;;;3.08;76.31;101124.41;5098468;28;20400;-66
2022/01/07 02:38:51;;;;;;;16.83;6.75;;;;;;;3.02;77.58;101117.78;5117031;28;20492;-66
2022/01/07 02:41:18;;;;;;;21.30;7.25;;;;;;;3.06;78.58;101118.41;5113933;28;20043;-66
2022/01/07 02:43:44;;;;;;;18.85;6.63;;;;;;;2.82;77.97;101120.75;5116736;28;20553;-66
2022/01/07 02:46:11;;;;;;;19.00;6.35;;;;;;;2.80;79.24;101115.66;5115597;28;20067;-66
2022/01/07 02:48:38;;;;;;;21.08;7.10;;;;;;;2.86;79.62;101110.00;5116788;28;20080;-66
2022/01/07 02:51:04;;;;;;;22.52;7.07;;;;;;;2.82;78.59;101107.66;5115745;28;20419;-66
2022/01/07 02:53:31;;;;;;;11.18;5.25;;;;;;;2.83;78.94;101104.94;5115434;28;20465;-66
2022/01/07 02:55:58;;;;;;;21.50;7.22;;;;;;;2.69;79.71;101105.81;5115272;28;20111;-66
2022/01/07 02:58:25;;;;;;;21.30;7.88;;;;;;;2.67;82.25;101097.22;5115492;28;20047;-65
2022/01/07 03:00:51;;;;;;;21.75;8.20;;;;;;;2.68;82.44;101082.34;5116686;28;20044;-65
2022/01/07 03:03:18;;;;;;;20.02;7.75;;;;;;;2.72;82.75;101075.97;5102709;28;20411;-66
2022/01/07 03:05:45;;;;;;;23.70;7.38;;;;;;;2.74;82.21;101070.63;5113473;28;20385;-66
2022/01/07 03:08:11;;;;;;;24.60;7.97;;;;;;;2.50;82.05;101061.56;5116532;28;20039;-66
2022/01/07 03:10:38;;;;;;;19.67;7.88;;;;;;;2.73;82.01;101061.06;5115968;28;20051;-66
2022/01/07 03:13:06;;;;;;;23.15;7.47;;;;;;;2.71;82.73;101040.25;5116123;28;20097;-66
2022/01/07 03:15:36;;;;;;;14.05;6.65;;;;;;;2.75;82.43;101041.72;5115071;28;20372;-66
2022/01/07 03:18:05;;;;;;;15.43;7.13;;;;;;;2.65;82.77;101040.59;5116243;28;20126;-66
2022/01/07 03:20:38;;;;;;;18.30;6.82;;;;;;;2.71;82.68;101036.75;5116351;28;20040;-66
2022/01/07 03:23:07;;;;;;;18.00;6.60;;;;;;;2.69;82.01;101029.84;5114912;28;20131;-66
2022/01/07 03:25:34;;;;;;;15.77;6.50;;;;;;;2.59;82.79;101028.72;5114797;28;20043;-66
2022/01/07 03:28:01;;;;;;;17.63;6.63;;;;;;;2.59;83.59;101013.00;5116151;28;20051;-66
2022/01/07 03:30:29;;;;;;;23.05;7.65;;;;;;;2.55;82.55;101011.53;5115096;28;20043;-66
2022/01/07 03:32:55;;;;;;;19.48;6.72;;;;;;;2.53;83.79;101000.31;5115931;28;20130;-66
2022/01/07 03:35:25;;;;;;;18.30;6.70;;;;;;;2.57;83.04;101000.97;5096201;28;20109;-66
2022/01/07 03:37:52;;;;;;;16.42;6.10;;;;;;;2.45;83.68;100994.69;5114463;28;20403;-66
2022/01/07 03:40:20;;;;;;;16.92;6.80;;;;;;;2.29;84.60;100995.66;5116848;28;20048;-66
2022/01/07 03:42:49;;;;;;;20.75;6.28;;;;;;;2.34;83.62;100984.06;5114261;28;20040;-66
2022/01/07 03:45:17;;;;;;;14.77;6.00;;;;;;;2.33;83.71;100980.59;5114528;27;20043;-66
2022/01/07 03:47:45;;;;;;;15.50;6.35;;;;;;;2.36;84.51;100979.56;5131797;27;20035;-66
2022/01/07 03:50:17;;;;;;;25.17;6.15;;;;;;;2.13;84.05;100984.44;5135303;27;20035;-65
2022/01/07 03:52:44;;;;;;;15.65;6.07;;;;;;;2.28;85.04;100977.44;5134803;27;20047;-65
2022/01/07 03:55:14;;;;;;;17.67;6.40;;;;;;;2.24;84.17;100975.94;5134711;27;20031;-66
2022/01/07 03:57:41;;;;;;;16.85;6.80;;;;;;;2.10;84.61;100971.53;5136087;27;20501;-66
2022/01/07 04:00:12;;;;;;;26.08;6.60;;;;;;;2.23;83.74;100969.00;5136147;27;20457;-65
2022/01/07 04:02:40;;;;;;;17.98;6.68;;;;;;;2.34;84.71;100974.41;5135888;27;20044;-66
2022/01/07 04:05:07;;;;;;;19.38;7.47;;;;;;;2.33;84.64;100967.50;5135748;27;20043;-66
2022/01/07 04:07:35;;;;;;;24.08;7.40;;;;;;;2.47;85.04;100958.78;5133270;27;20513;-66
2022/01/07 04:10:04;;;;;;;15.88;7.03;;;;;;;2.59;84.46;100955.41;5078792;28;20133;-66
2022/01/07 04:12:31;;;;;;;18.58;6.75;;;;;;;2.62;82.90;100957.81;5095425;28;20411;-66
2022/01/07 04:15:08;;;;;;;22.55;6.80;;;;;;;2.60;83.41;100949.22;5099633;28;20036;-66
2022/01/07 04:17:38;;;;;;;23.27;7.60;;;;;;;2.50;84.60;100942.88;5099612;28;20400;-66
2022/01/07 04:20:07;;;;;;;18.50;6.82;;;;;;;2.53;84.63;100945.31;5112295;28;20504;-66
2022/01/07 04:22:34;;;;;;;17.88;7.03;;;;;;;2.62;84.89;100943.88;5102813;28;20042;-66
2022/01/07 04:25:04;;;;;;;18.92;7.00;;;;;;;2.62;84.52;100936.88;5113779;28;20404;-65
2022/01/07 04:27:31;;;;;;;18.88;6.38;;;;;;;2.66;84.32;100933.09;5113958;28;20071;-65
2022/01/07 04:29:58;;;;;;;14.13;5.47;;;;;;;2.75;82.63;100933.44;5114724;28;20043;-66
2022/01/07 04:32:27;;;;;;;22.42;6.70;;;;;;;2.67;81.22;100926.94;5113521;28;20042;-66
2022/01/07 04:34:53;;;;;;;18.85;6.90;;;;;;;2.71;82.50;100935.44;5111637;28;20488;-66
2022/01/07 04:37:21;;;;;;;20.33;6.55;;;;;;;2.80;82.40;100939.22;5114673;28;20085;-66
2022/01/07 04:39:48;;;;;;;16.02;5.93;;;;;;;2.77;81.33;100934.22;5113549;28;20040;-66
2022/01/07 04:42:14;;;;;;;23.33;5.63;;;;;;;2.79;81.31;100929.72;5096402;28;20048;-66
2022/01/07 04:44:42;;;;;;;15.43;5.38;;;;;;;2.90;81.01;100929.84;5113194;28;20039;-66
2022/01/07 04:47:09;;;;;;;18.60;6.28;;;;;;;2.84;80.98;100930.25;5114417;28;20039;-66
2022/01/07 04:49:37;;;;;;;18.42;6.15;;;;;;;2.97;80.90;100931.13;5114530;28;20043;-66
2022/01/07 04:52:05;;;;;;;22.52;5.53;;;;;;;2.93;80.48;100929.66;5113238;28;20111;-66
2022/01/07 04:54:32;;;;;;;18.88;6.15;;;;;;;2.91;81.27;100939.41;5112344;28;20039;-66
2022/01/07 04:57:00;;;;;;;16.30;5.80;;;;;;;2.99;81.24;100941.50;5113005;28;20514;-66
2022/01/07 04:59:26;;;;;;;17.40;5.75;;;;;;;2.95;79.86;100934.78;5114544;28;20039;-66
2022/01/07 05:01:54;;;;;;;20.35;6.50;;;;;;;2.86;80.65;100933.63;5113176;28;20496;-66
2022/01/07 05:04:21;;;;;;;17.80;6.18;;;;;;;2.98;79.69;100934.56;5113109;28;20127;-66
2022/01/07 05:06:48;;;;;;;21.75;6.35;;;;;;;2.95;80.30;100929.53;5094378;28;20043;-66
2022/01/07 05:09:17;;;;;;;15.85;6.25;;;;;;;3.02;81.66;100936.06;5113839;28;20109;-66
2022/01/07 05:11:48;;;;;;;18.92;7.55;;;;;;;3.03;81.23;100929.88;5114001;28;20047;-65
2022/01/07 05:14:16;;;;;;;24.97;6.83;;;;;;;2.95;82.61;100932.16;5113869;28;20503;-65
2022/01/07 05:16:43;;;;;;;19.02;6.80;;;;;;;2.91;82.81;100930.69;5113797;28;20442;-66
2022/01/07 05:19:10;;;;;;;23.05;7.25;;;;;;;2.96;82.53;100933.84;5095982;28;20077;-66
2022/01/07 05:21:38;;;;;;;20.10;7.10;;;;;;;2.92;83.82;100935.81;5113950;28;20131;-65
2022/01/07 05:24:05;;;;;;;19.50;6.28;;;;;;;2.84;82.35;100935.50;5113589;28;20042;-66
2022/01/07 05:26:32;;;;;;;20.52;6.57;;;;;;;2.92;83.39;100937.63;5113722;28;20044;-66
2022/01/07 05:28:59;;;;;;;25.75;6.45;;;;;;;2.88;84.23;100932.56;5113692;27;20036;-66
2022/01/07 05:31:26;;;;;;;20.88;6.60;;;;;;;2.97;83.00;100931.13;5112542;28;20496;-66
2022/01/07 05:33:56;;;;;;;17.58;6.70;;;;;;;2.95;84.32;100935.63;5095921;28;20109;-66
2022/01/07 05:36:23;;;;;;;20.25;6.90;;;;;;;2.94;84.04;100926.06;5111622;28;20778;-64
2022/01/07 05:38:51;;;;;;;20.40;6.63;;;;;;;2.94;84.49;100930.50;5113465;28;20469;-65
2022/01/07 05:41:19;;;;;;;21.45;6.47;;;;;;;2.81;84.97;100927.81;5113651;28;20039;-65
2022/01/07 05:43:46;;;;;;;16.48;6.13;;;;;;;2.85;84.51;100924.06;5112411;28;20040;-65
2022/01/07 05:46:15;;;;;;;22.15;6.40;;;;;;;2.88;84.69;100916.84;5108010;28;20043;-65
2022/01/07 05:48:44;;;;;;;23.40;6.65;;;;;;;2.80;85.65;100918.28;5091801;28;20040;-65
2022/01/07 05:51:12;;;;;;;18.58;6.47;;;;;;;2.78;86.13;100915.75;5092855;28;20052;-66
2022/01/07 05:53:39;;;;;;;22.50;7.65;;;;;;;2.83;85.86;100918.91;5091507;28;20048;-66
2022/01/07 05:56:07;;;;;;;22.15;7.45;;;;;;;2.86;86.37;100907.41;5091852;28;20101;-65
2022/01/07 05:58:34;;;;;;;19.00;6.43;;;;;;;2.87;86.13;100914.31;5092925;28;20067;-66
2022/01/07 06:01:01;;;;;;;24.88;6.70;;;;;;;2.89;83.90;100915.06;5092977;28;20047;-65
2022/01/07 06:03:28;;;;;;;19.33;6.65;;;;;;;2.80;85.47;100915.66;5092699;28;20040;-66
2022/01/07 06:05:55;;;;;;;18.13;6.03;;;;;;;2.75;85.64;100915.09;5097731;28;20055;-66
2022/01/07 06:08:22;;;;;;;21.38;5.63;;;;;;;2.86;85.86;100908.25;5076693;28;20047;-66
2022/01/07 06:10:48;;;;;;;11.55;4.22;;;;;;;2.72;84.40;100904.84;5112729;28;20069;-66
2022/01/07 06:13:15;;;;;;;16.58;4.75;;;;;;;2.73;84.83;100902.13;5112908;28;20035;-65
2022/01/07 06:15:42;;;;;;;12.35;4.32;;;;;;;2.74;85.48;100897.72;5113065;28;20104;-65
2022/01/07 06:18:09;;;;;;;18.10;5.00;;;;;;;2.64;87.24;100895.69;5094700;28;20067;-66
2022/01/07 06:20:35;;;;;;;13.02;4.90;;;;;;;2.73;86.73;100899.50;5111923;28;20400;-65
2022/01/07 06:23:02;;;;;;;12.13;4.18;;;;;;;2.81;87.63;100894.59;5091697;28;20052;-65
2022/01/07 06:25:29;;;;;;;15.38;4.82;;;;;;;2.83;86.78;100891.88;5091700;28;20040;-65
2022/01/07 06:27:56;;;;;;;17.23;6.15;;;;;;;2.87;87.48;100891.59;5103153;28;20059;-65
2022/01/07 06:30:23;;;;;;;19.15;5.75;;;;;;;2.90;88.27;100890.53;5098529;28;20462;-66
2022/01/07 06:32:49;;;;;;;21.13;6.75;;;;;;;2.94;87.55;100886.75;5092673;28;20028;-66
2022/01/07 06:35:16;;;;;;;19.58;5.95;;;;;;;2.97;86.25;100885.75;5089338;28;20082;-66
2022/01/07 06:37:43;;;;;;;14.77;5.43;;;;;;;2.99;86.41;100878.63;5091188;28;20118;-66
2022/01/07 06:40:11;;;;;;;16.30;5.90;;;;;;;2.99;87.23;100884.69;5074871;28;20044;-65
2022/01/07 06:42:38;;;;;;;20.70;5.13;;;;;;;3.08;85.87;100881.44;5092325;28;20032;-65
2022/01/07 06:45:06;;;;;;;11.45;4.68;;;;;;;3.11;86.30;100882.19;5092392;28;20105;-66
2022/01/07 06:47:33;;;;;;;11.90;4.82;;;;;;;3.06;86.79;100880.72;5092142;28;20100;-66
2022/01/07 06:50:00;;;;;;;15.18;4.97;;;;;;;3.25;86.62;100879.47;5092458;28;20036;-66
2022/01/07 06:52:28;;;;;;;13.57;4.45;;;;;;;3.22;85.89;100887.53;5092310;28;20049;-65
2022/01/07 06:54:56;;;;;;;10.32;4.15;;;;;;;3.27;85.08;100877.59;5074355;28;20047;-66
2022/01/07 06:57:23;;;;;;;15.35;4.43;;;;;;;3.28;86.43;100876.66;5092277;28;20432;-66
2022/01/07 06:59:49;;;;;;;16.60;5.43;;;;;;;3.34;86.29;100880.66;5074345;28;20385;-66
2022/01/07 07:02:17;;;;;;;16.52;5.82;;;;;;;3.29;85.83;100886.19;5091163;28;20446;-66
2022/01/07 07:04:44;;;;;;;17.80;5.35;;;;;;;3.32;86.61;100890.41;5084359;28;20052;-66
2022/01/07 07:07:11;;;;;;;16.73;4.88;;;;;;;3.35;86.35;100882.34;5110978;28;20044;-66
2022/01/07 07:09:38;;;;;;;12.75;4.38;;;;;;;3.29;84.92;100880.94;5112359;28;20051;-66
2022/01/07 07:12:05;;;;;;;17.00;5.40;;;;;;;3.41;85.00;100893.22;5111706;28;20056;-66
2022/01/07 07:14:32;;;;;;;12.75;4.80;;;;;;;3.52;84.65;100892.50;5112288;28;20039;-66
2022/01/07 07:16:58;;;;;;;12.65;4.60;;;;;;;3.61;84.93;100878.75;5112071;28;20050;-66
2022/01/07 07:19:25;;;;;;;16.65;4.68;;;;;;;3.45;85.81;100888.63;5115081;28;20101;-66
2022/01/07 07:21:52;;;;;;;13.18;5.35;;;;;;;3.49;86.08;100890.09;5114938;28;20510;-66
2022/01/07 07:24:18;;;;;;;17.70;5.35;;;;;;;3.46;86.72;100883.28;5116090;28;20069;-66
2022/01/07 07:26:45;;;;;;;12.88;4.88;;;;;;;3.48;85.41;100893.66;5116075;28;20040;-66
2022/01/07 07:29:12;;;;;;;14.82;5.10;;;;;;;3.52;85.76;100884.63;5116048;28;20413;-66
2022/01/07 07:31:42;;;;;;;13.18;4.55;;;;;;;3.53;86.58;100888.09;5114958;28;20043;-66
2022/01/07 07:36:52;;;;;;;12.48;3.78;;;;;;;3.58;86.96;100889.44;5131100;27;20371;-66
2022/01/07 07:39:19;;;;;;;12.50;4.32;;;;;;;3.61;86.22;100893.66;5130952;27;20075;-66
2022/01/07 07:41:48;;;;;;;8.48;3.63;;;;;;;3.72;84.98;100891.13;5129985;28;20039;-66
2022/01/07 07:44:15;;;;;;;12.70;4.18;;;;;;;3.72;85.73;100883.25;5112968;28;20035;-66
2022/01/07 07:46:42;;;;;;;13.18;3.83;;;;;;;3.81;84.93;100884.41;5130838;27;20536;-66
2022/01/07 07:49:09;;;;;;;9.90;3.67;;;;;;;3.87;84.99;100876.09;5145741;27;20068;-66
2022/01/07 07:51:37;;;;;;;13.00;3.95;;;;;;;3.74;83.74;100876.13;5150310;27;20043;-66
2022/01/07 07:54:05;;;;;;;11.88;3.53;;;;;;;3.82;83.21;100892.19;5150101;27;20045;-66
2022/01/07 07:56:32;;;;;;;8.38;3.30;;;;;;;3.83;83.61;100888.59;5151126;27;20076;-66
2022/01/07 07:58:59;;;;;;;8.60;3.10;;;;;;;3.82;82.57;100893.94;5150120;27;20099;-66
2022/01/07 08:01:26;;;;;;;7.18;3.05;;;;;;;3.77;83.11;100902.16;5151367;27;20050;-66
2022/01/07 08:03:53;;;;;;;10.90;3.53;;;;;;;3.69;84.19;100895.75;5117945;28;20039;-66
2022/01/07 08:06:20;;;;;;;12.00;3.40;;;;;;;3.63;83.08;100905.72;5127527;27;20046;-66
2022/01/07 08:08:47;;;;;;;10.65;3.53;;;;;;;3.79;84.11;100902.06;5130081;27;20047;-66
2022/01/07 08:11:15;;;;;;;11.57;3.08;;;;;;;3.83;82.94;100903.53;5130417;27;20051;-66
2022/01/07 08:16:29;;;;;;;8.52;3.10;;;;;;;3.73;83.41;100895.47;5130193;27;20122;-66
2022/01/07 08:18:58;;;;;;;8.23;3.38;;;;;;;3.76;82.75;100895.22;5130000;27;20092;-67
2022/01/07 08:21:27;;;;;;;8.77;3.17;;;;;;;3.79;82.56;100895.00;5128959;28;20044;-66
2022/01/07 08:23:55;;;;;;;7.55;3.22;;;;;;;3.80;81.81;100898.47;5129051;28;20088;-66
2022/01/07 08:26:23;;;;;;;7.25;3.13;;;;;;;3.84;83.58;100890.28;5130042;28;20118;-66
2022/01/07 08:28:58;;;;;;;12.57;3.67;;;;;;;3.88;81.94;100892.72;5130110;27;20035;-66
2022/01/07 08:36:56;;;;;;;9.80;3.17;;;;;;;3.96;81.64;100882.50;5129475;27;20046;-66
2022/01/07 08:39:24;;;;;;;10.73;3.40;;;;;;;3.94;82.21;100882.59;5118677;28;20045;-66
2022/01/07 08:41:53;;;;;;;9.23;3.20;;;;;;;3.90;81.26;100881.16;5135600;28;20074;-66
2022/01/07 08:44:21;;;;;;;9.45;3.85;;;;;;;3.93;81.88;100877.47;5131114;27;20043;-66
2022/01/07 08:46:48;;;;;;;9.57;3.70;;;;;;;3.95;81.47;100878.22;5130689;27;20046;-66
2022/01/07 08:49:15;;;;;;;9.82;3.40;;;;;;;3.98;81.47;100870.09;5130743;27;20377;-66
2022/01/07 08:51:42;;;;;;;7.50;3.05;;;;;;;4.08;81.50;100862.44;5130702;27;20050;-66
2022/01/07 08:54:08;;;;;;;8.90;3.08;;;;;;;4.10;81.54;100858.75;5129291;28;20039;-66
2022/01/07 08:56:37;;;;;;;8.40;3.10;;;;;;;4.08;82.52;100859.81;5130146;27;20123;-66
2022/01/07 08:59:03;;;;;;;6.47;2.80;;;;;;;4.07;82.40;100851.06;5130768;27;20035;-66
2022/01/07 09:01:32;;;;;;;7.50;3.10;;;;;;;4.16;82.03;100842.53;5129845;27;20046;-66
2022/01/07 09:03:59;;;;;;;6.45;2.75;;;;;;;4.23;80.61;100848.19;5129533;28;20043;-66
2022/01/07 09:06:25;;;;;;;5.65;2.40;;;;;;;4.10;80.41;100843.00;5128595;27;20065;-66
2022/01/07 09:08:53;;;;;;;6.88;2.80;;;;;;;4.03;81.14;100845.19;5130179;27;20435;-66
2022/01/07 09:11:19;;;;;;;9.38;2.92;;;;;;;4.08;81.26;100841.44;5130257;27;20408;-66
2022/01/07 09:13:48;;;;;;;6.70;2.72;;;;;;;4.04;80.67;100846.06;5130322;27;20368;-66
2022/01/07 09:16:15;;;;;;;8.38;2.88;;;;;;;4.09;81.52;100841.28;5111768;28;20047;-66
2022/01/07 09:18:42;;;;;;;7.35;2.70;;;;;;;4.14;81.16;100856.75;5112487;28;20047;-66
2022/01/07 09:21:09;;;;;;;7.10;2.60;;;;;;;4.14;80.71;100865.44;5130254;27;20071;-66
2022/01/07 09:23:40;;;;;;;7.72;2.67;;;;;;;4.23;80.63;100870.03;5129917;27;20040;-66
2022/01/07 09:26:09;;;;;;;7.43;2.53;;;;;;;4.15;80.01;100874.19;5129975;27;20040;-66
2022/01/07 09:28:36;;;;;;;6.97;2.80;;;;;;;4.32;80.16;100868.53;5130300;27;20837;-66
2022/01/07 09:31:03;;;;;;;9.70;2.75;;;;;;;4.22;79.93;100875.38;5128849;27;20569;-66
2022/01/07 09:33:30;;;;;;;9.15;3.50;;;;;;;4.29;80.94;100881.06;5127700;27;20137;-66
2022/01/07 09:36:07;;;;;;;5.38;2.40;;;;;;;4.31;79.79;100879.16;5112877;27;20504;-66
2022/01/07 09:38:35;;;;;;;7.15;2.70;;;;;;;4.33;80.07;100874.63;5129924;27;20035;-66
2022/01/07 09:41:05;;;;;;;7.53;2.63;;;;;;;4.27;81.53;100875.06;5130134;27;20040;-66
2022/01/07 09:43:34;;;;;;;6.53;2.38;;;;;;;4.33;79.53;100878.13;5126218;28;20040;-66
2022/01/07 09:46:01;;;;;;;7.90;2.70;;;;;;;4.27;81.41;100870.66;5114789;28;20505;-66
2022/01/07 09:48:27;;;;;;;8.10;2.47;;;;;;;4.23;80.89;100870.03;5117403;27;20051;-66
2022/01/07 09:50:54;;;;;;;6.78;2.53;;;;;;;4.23;81.80;100867.41;5135467;27;20045;-66
2022/01/07 09:53:21;;;;;;;7.93;2.45;;;;;;;4.39;80.42;100864.53;5135633;27;20088;-66
2022/01/07 09:55:48;;;;;;;5.40;2.25;;;;;;;4.48;78.85;100857.78;5134938;27;20065;-66
2022/01/07 09:58:15;;;;;;;7.78;2.90;;;;;;;4.39;79.51;100858.44;5136024;27;20038;-66
2022/01/07 10:00:46;;;;;;;4.78;2.20;;;;;;;4.34;79.95;100864.00;5122881;27;20393;-66
2022/01/07 10:03:15;;;;;;;10.13;2.65;;;;;;;4.43;79.07;100862.50;5115348;28;20043;-66
2022/01/07 10:05:49;;;;;;;7.70;2.35;;;;;;;4.40;80.91;100863.59;5114953;27;20096;-66
2022/01/07 10:08:27;;;;;;;7.97;2.70;;;;;;;4.64;78.31;100867.16;5113386;28;20044;-66
2022/01/07 10:11:16;;;;;;;8.95;2.28;;;;;;;4.53;78.33;100866.16;5115677;28;20047;-66
2022/01/07 10:13:45;;;;;;;6.35;2.42;;;;;;;4.58;79.28;100868.44;5113799;28;20039;-66
2022/01/07 10:16:15;;;;;;;6.88;2.60;;;;;;;4.65;80.44;100863.59;5115094;28;20116;-66
2022/01/07 10:18:49;;;;;;;6.72;2.45;;;;;;;4.61;78.88;100869.06;5114112;28;20040;-66
2022/01/07 10:21:17;;;;;;;7.15;2.53;;;;;;;4.61;78.55;100862.97;5114445;28;20719;-66
2022/01/07 10:23:45;;;;;;;7.20;2.47;;;;;;;4.56;79.17;100862.47;5115355;28;20051;-66
2022/01/07 10:26:16;;;;;;;6.80;2.15;;;;;;;4.53;78.36;100854.78;5096871;28;20051;-66
2022/01/07 10:28:45;;;;;;;5.27;2.17;;;;;;;4.58;78.95;100861.41;5115426;28;20066;-66
2022/01/07 10:31:21;;;;;;;8.80;2.60;;;;;;;4.52;78.71;100858.38;5115033;27;20043;-66
2022/01/07 10:33:50;;;;;;;7.65;2.50;;;;;;;4.63;79.27;100854.97;5111323;28;20052;-66
2022/01/07 10:36:20;;;;;;;6.70;2.38;;;;;;;4.72;78.63;100854.28;5114450;28;20386;-66
2022/01/07 10:39:04;;;;;;;8.05;2.42;;;;;;;4.77;79.09;100853.00;5114687;28;20071;-66
2022/01/07 10:41:32;;;;;;;6.55;2.30;;;;;;;4.64;78.38;100846.97;5110092;28;20036;-66
2022/01/07 10:44:03;;;;;;;7.22;2.55;;;;;;;4.60;78.72;100843.75;5088532;28;20044;-66
2022/01/07 10:46:31;;;;;;;8.85;2.60;;;;;;;4.65;78.67;100837.31;5112951;28;20043;-66
2022/01/07 10:49:00;;;;;;;7.72;2.58;;;;;;;4.63;79.63;100840.03;5113181;28;20036;-65
2022/01/07 10:51:36;;;;;;;11.32;3.42;;;;;;;4.84;79.46;100831.50;5116150;28;20089;-65
2022/01/07 10:54:05;;;;;;;7.45;2.90;;;;;;;4.78;78.16;100831.03;5122062;27;20071;-65
2022/01/07 10:59:14;;;;;;;9.20;2.80;;;;;;;4.87;78.64;100824.22;5081809;27;20524;-66
2022/01/07 11:01:48;;;;;;;10.82;3.28;;;;;;;4.81;78.73;100822.06;5053522;28;20041;-64
2022/01/07 11:04:18;;;;;;;9.13;3.08;;;;;;;4.91;78.89;100827.47;5059254;28;20486;-65
2022/01/07 11:06:46;;;;;;;8.00;2.85;;;;;;;4.98;77.77;100815.53;5066126;28;20394;-65
2022/01/07 11:09:16;;;;;;;7.93;3.13;;;;;;;4.92;78.64;100808.94;5060682;28;20417;-64
2022/01/07 11:11:47;;;;;;;12.40;3.20;;;;;;;4.87;78.24;100808.47;5057207;28;20041;-67
2022/01/07 11:14:18;;;;;;;7.20;3.00;;;;;;;4.77;77.70;100803.06;5043111;28;20085;-64
2022/01/07 11:16:45;;;;;;;9.67;3.27;;;;;;;4.83;78.63;100808.81;5052783;28;20413;-64
2022/01/07 11:19:18;;;;;;;11.40;3.88;;;;;;;5.00;77.98;100805.72;5063624;28;20037;-66
2022/01/07 11:21:50;;;;;;;9.48;3.60;;;;;;;5.08;77.80;100815.69;5058081;28;20124;-64
2022/01/07 11:24:38;;;;;;;11.00;3.38;;;;;;;5.08;77.82;100808.63;5060374;28;20041;-65
2022/01/07 11:29:53;;;;;;;8.90;2.95;;;;;;;5.19;76.62;100802.56;5095627;27;20381;-66
2022/01/07 11:32:31;;;;;;;8.57;2.78;;;;;;;5.55;75.80;100798.03;5089305;28;20079;-64
2022/01/07 11:37:59;;;;;;;8.40;2.53;;;;;;;5.50;75.30;100787.03;5081122;27;20349;-67
2022/01/07 11:40:42;;;;;;;22.40;3.03;;;;;;;5.38;76.49;100789.66;5066827;28;20079;-64
2022/01/07 11:43:31;;;;;;;8.68;2.78;;;;;;;5.32;76.68;100798.03;5053722;28;20409;-66
2022/01/07 11:46:19;;;;;;;10.10;3.20;;;;;;;5.38;76.08;100773.88;5056686;28;20065;-66
2022/01/07 11:48:46;;;;;;;11.07;2.90;;;;;;;5.30;76.78;100778.06;5031807;28;20056;-66
2022/01/07 11:51:15;;;;;;;9.80;3.20;;;;;;;5.40;75.69;100776.38;5064102;28;20103;-66